createdAt,value
2017-10-11T00:00:30.061Z,14.5
2017-10-11T00:01:30.794Z,14.5
2017-10-11T00:02:31.531Z,14.4
2017-10-11T00:03:32.271Z,14.5
2017-10-11T00:04:33.312Z,14.4
2017-10-11T00:05:34.041Z,14.5
2017-10-11T00:06:34.783Z,14.5
2017-10-11T00:07:35.600Z,14.5
2017-10-11T00:08:36.330Z,14.5
2017-10-11T00:09:37.491Z,14.5
2017-10-11T00:10:38.277Z,14.5
2017-10-11T00:11:39.057Z,14.5
2017-10-11T00:12:39.818Z,14.4
2017-10-11T00:13:40.580Z,14.5
2017-10-11T00:14:41.407Z,14.5
2017-10-11T00:15:42.146Z,14.5
2017-10-11T00:16:42.877Z,14.5
2017-10-11T00:17:43.621Z,14.4
2017-10-11T00:18:44.355Z,14.5
2017-10-11T00:19:45.198Z,14.4
2017-10-11T00:20:46.003Z,14.4
2017-10-11T00:21:46.791Z,14.4
2017-10-11T00:22:47.516Z,14.4
2017-10-11T00:23:48.254Z,14.4
2017-10-11T00:24:49.430Z,14.4
2017-10-11T00:25:50.162Z,14.5
2017-10-11T00:26:50.974Z,14.5
2017-10-11T00:27:51.753Z,14.4
2017-10-11T00:28:52.478Z,14.5
2017-10-11T00:29:53.557Z,14.4
2017-10-11T00:30:54.285Z,14.4
2017-10-11T00:31:55.026Z,14.5
2017-10-11T00:32:55.756Z,14.4
2017-10-11T00:33:56.494Z,14.4
2017-10-11T00:34:57.332Z,14.4
2017-10-11T00:35:58.089Z,14.5
2017-10-11T00:36:58.883Z,14.5
2017-10-11T00:37:59.717Z,14.4
2017-10-11T00:39:00.523Z,14.4
2017-10-11T00:40:01.606Z,14.4
2017-10-11T00:41:02.383Z,14.4
2017-10-11T00:42:03.114Z,14.4
2017-10-11T00:43:03.916Z,14.5
2017-10-11T00:44:04.651Z,14.3
2017-10-11T00:45:05.417Z,14.5
2017-10-11T00:46:06.157Z,14.5
2017-10-11T00:47:06.958Z,14.4
2017-10-11T00:48:07.694Z,14.5
2017-10-11T00:49:08.478Z,14.5
2017-10-11T00:50:09.271Z,14.4
2017-10-11T00:51:10.078Z,14.4
2017-10-11T00:52:10.876Z,14.4
2017-10-11T00:53:11.602Z,14.4
2017-10-11T00:54:12.329Z,14.4
2017-10-11T00:55:13.380Z,14.4
2017-10-11T00:56:14.122Z,14.4
2017-10-11T00:57:14.852Z,14.4
2017-10-11T00:58:15.588Z,14.4
2017-10-11T00:59:16.333Z,14.4
2017-10-11T01:00:17.418Z,14.4
2017-10-11T01:01:18.139Z,14.4
2017-10-11T01:02:18.879Z,14.4
2017-10-11T01:03:19.669Z,14.4
2017-10-11T01:04:20.412Z,14.4
2017-10-11T01:05:21.556Z,14.4
2017-10-11T01:06:22.343Z,14.4
2017-10-11T01:07:23.145Z,14.4
2017-10-11T01:08:23.879Z,14.4
2017-10-11T01:09:24.609Z,14.4
2017-10-11T01:10:25.738Z,14.4
2017-10-11T01:11:26.493Z,14.4
2017-10-11T01:12:27.280Z,14.4
2017-10-11T01:13:28.065Z,14.4
2017-10-11T01:14:28.863Z,14.4
2017-10-11T01:15:29.636Z,14.4
2017-10-11T01:16:30.444Z,14.4
2017-10-11T01:17:31.184Z,14.4
2017-10-11T01:18:31.950Z,14.4
2017-10-11T01:19:33.031Z,14.5
2017-10-11T01:20:33.841Z,14.4
2017-10-11T01:21:34.639Z,14.5
2017-10-11T01:22:35.430Z,14.4
2017-10-11T01:23:36.243Z,14.5
2017-10-11T01:24:37.390Z,14.4
2017-10-11T01:25:38.111Z,14.4
2017-10-11T01:26:38.844Z,14.4
2017-10-11T01:27:39.628Z,14.4
2017-10-11T01:28:40.408Z,14.4
2017-10-11T01:29:41.444Z,14.4
2017-10-11T01:30:42.170Z,14.4
2017-10-11T01:31:42.914Z,14.4
2017-10-11T01:32:43.689Z,14.4
2017-10-11T01:33:44.429Z,14.4
2017-10-11T01:34:45.205Z,14.3
2017-10-11T01:35:45.931Z,14.3
2017-10-11T01:36:47.007Z,14.4
2017-10-11T01:37:47.742Z,14.3
2017-10-11T01:38:48.481Z,14.3
2017-10-11T01:39:49.222Z,14.3
2017-10-11T01:40:50.034Z,14.3
2017-10-11T01:41:50.807Z,14.4
2017-10-11T01:42:51.601Z,14.3
2017-10-11T01:43:52.338Z,14.3
2017-10-11T01:44:53.123Z,14.3
2017-10-11T01:45:53.866Z,14.2
2017-10-11T01:46:54.776Z,14.2
2017-10-11T01:47:55.584Z,14.2
2017-10-11T01:48:56.311Z,14.2
2017-10-11T01:49:57.045Z,14.2
2017-10-11T01:50:57.775Z,14.1
2017-10-11T01:51:58.814Z,14.1
2017-10-11T01:52:59.547Z,14.1
2017-10-11T01:54:00.286Z,14.1
2017-10-11T01:55:01.092Z,14.1
2017-10-11T01:56:01.894Z,14.1
2017-10-11T01:57:02.977Z,14.1
2017-10-11T01:58:03.767Z,14.1
2017-10-11T01:59:04.525Z,14.1
2017-10-11T02:00:05.265Z,14.1
2017-10-11T02:01:05.995Z,14.1
2017-10-11T02:02:07.062Z,14.1
2017-10-11T02:03:07.875Z,14.1
2017-10-11T02:04:08.605Z,13.9
2017-10-11T02:05:09.398Z,14.0
2017-10-11T02:06:10.209Z,14.1
2017-10-11T02:07:10.943Z,13.9
2017-10-11T02:08:11.670Z,13.9
2017-10-11T02:09:12.476Z,14.0
2017-10-11T02:10:13.349Z,14.0
2017-10-11T02:11:14.119Z,14.1
2017-10-11T02:12:14.888Z,14.1
2017-10-11T02:13:15.607Z,14.1
2017-10-11T02:14:16.338Z,14.1
2017-10-11T02:15:17.378Z,14.1
2017-10-11T02:16:18.109Z,14.1
2017-10-11T02:17:18.912Z,14.1
2017-10-11T02:18:19.647Z,14.1
2017-10-11T02:19:20.444Z,14.1
2017-10-11T02:20:21.231Z,14.1
2017-10-11T02:21:21.962Z,14.1
2017-10-11T02:22:22.784Z,14.0
2017-10-11T02:23:23.581Z,14.0
2017-10-11T02:24:24.382Z,14.0
2017-10-11T02:25:25.516Z,14.0
2017-10-11T02:26:26.294Z,14.0
2017-10-11T02:27:27.085Z,14.1
2017-10-11T02:28:27.819Z,14.0
2017-10-11T02:29:28.559Z,14.1
2017-10-11T02:30:29.456Z,14.1
2017-10-11T02:31:30.188Z,14.1
2017-10-11T02:32:30.933Z,14.1
2017-10-11T02:33:31.652Z,14.1
2017-10-11T02:34:32.387Z,14.2
2017-10-11T02:35:33.547Z,14.2
2017-10-11T02:36:34.301Z,14.1
2017-10-11T02:37:35.045Z,14.1
2017-10-11T02:38:35.829Z,14.1
2017-10-11T02:39:36.605Z,14.1
2017-10-11T02:40:37.466Z,14.1
2017-10-11T02:41:38.280Z,14.1
2017-10-11T02:42:39.083Z,14.1
2017-10-11T02:43:39.895Z,14.1
2017-10-11T02:44:40.678Z,14.1
2017-10-11T02:45:41.713Z,14.1
2017-10-11T02:46:42.468Z,14.1
2017-10-11T02:47:43.206Z,14.0
2017-10-11T02:48:43.998Z,14.1
2017-10-11T02:49:44.739Z,14.0
2017-10-11T02:50:45.816Z,14.0
2017-10-11T02:51:46.533Z,14.0
2017-10-11T02:52:47.298Z,14.0
2017-10-11T02:53:48.029Z,14.0
2017-10-11T02:54:48.758Z,14.0
2017-10-11T02:55:49.902Z,14.0
2017-10-11T02:56:50.689Z,13.9
2017-10-11T02:57:51.423Z,14.0
2017-10-11T02:58:52.156Z,14.0
2017-10-11T02:59:52.877Z,14.0
2017-10-11T03:00:53.663Z,14.0
2017-10-11T03:01:54.487Z,13.9
2017-10-11T03:02:55.212Z,14.0
2017-10-11T03:03:55.942Z,14.0
2017-10-11T03:04:56.674Z,13.9
2017-10-11T03:05:57.838Z,13.9
2017-10-11T03:06:58.653Z,13.9
2017-10-11T03:07:59.383Z,13.9
2017-10-11T03:09:00.175Z,13.9
2017-10-11T03:10:00.913Z,14.0
2017-10-11T03:11:01.958Z,13.9
2017-10-11T03:12:02.737Z,13.9
2017-10-11T03:13:03.458Z,13.9
2017-10-11T03:14:04.192Z,14.0
2017-10-11T03:15:04.926Z,13.9
2017-10-11T03:16:05.961Z,13.9
2017-10-11T03:17:06.689Z,13.9
2017-10-11T03:18:07.429Z,13.9
2017-10-11T03:19:08.163Z,13.9
2017-10-11T03:20:08.959Z,13.9
2017-10-11T03:21:09.941Z,13.9
2017-10-11T03:22:10.682Z,14.0
2017-10-11T03:23:11.427Z,14.0
2017-10-11T03:24:12.248Z,13.9
2017-10-11T03:25:13.024Z,13.9
2017-10-11T03:26:13.879Z,13.9
2017-10-11T03:27:14.663Z,13.9
2017-10-11T03:28:15.491Z,14.0
2017-10-11T03:29:16.231Z,13.9
2017-10-11T03:30:16.952Z,13.9
2017-10-11T03:31:18.032Z,13.9
2017-10-11T03:32:18.763Z,13.9
2017-10-11T03:33:19.507Z,13.9
2017-10-11T03:34:20.316Z,13.9
2017-10-11T03:35:21.099Z,13.9
2017-10-11T03:36:22.264Z,13.9
2017-10-11T03:37:22.992Z,14.0
2017-10-11T03:38:23.729Z,14.0
2017-10-11T03:39:24.463Z,13.9
2017-10-11T03:40:25.203Z,14.0
2017-10-11T03:41:26.238Z,13.9
2017-10-11T03:42:27.017Z,14.0
2017-10-11T03:43:27.752Z,14.0
2017-10-11T03:44:28.479Z,13.9
2017-10-11T03:45:29.223Z,13.9
2017-10-11T03:46:30.006Z,13.9
2017-10-11T03:47:30.823Z,13.9
2017-10-11T03:48:31.562Z,13.9
2017-10-11T03:49:32.289Z,13.9
2017-10-11T03:50:33.023Z,13.9
2017-10-11T03:51:33.844Z,14.0
2017-10-11T03:52:34.952Z,13.9
2017-10-11T03:53:35.702Z,14.0
2017-10-11T03:54:36.437Z,14.0
2017-10-11T03:55:37.241Z,14.0
2017-10-11T03:56:37.979Z,14.0
2017-10-11T03:57:39.008Z,13.9
2017-10-11T03:58:39.744Z,13.9
2017-10-11T03:59:40.481Z,13.9
2017-10-11T04:00:41.247Z,13.8
2017-10-11T04:01:41.968Z,13.8
2017-10-11T04:02:42.984Z,13.7
2017-10-11T04:03:43.806Z,13.7
2017-10-11T04:04:44.734Z,13.7
2017-10-11T04:05:45.467Z,13.8
2017-10-11T04:06:46.198Z,13.8
2017-10-11T04:07:47.178Z,13.6
2017-10-11T04:08:47.901Z,13.6
2017-10-11T04:09:48.708Z,13.6
2017-10-11T04:10:49.473Z,13.6
2017-10-11T04:11:50.265Z,13.6
2017-10-11T04:12:50.988Z,13.5
2017-10-11T04:13:51.717Z,13.6
2017-10-11T04:14:52.495Z,13.6
2017-10-11T04:15:53.288Z,13.6
2017-10-11T04:16:54.059Z,13.6
2017-10-11T04:17:55.212Z,13.6
2017-10-11T04:18:55.943Z,13.6
2017-10-11T04:19:56.675Z,13.6
2017-10-11T04:20:57.393Z,13.6
2017-10-11T04:21:58.191Z,13.7
2017-10-11T04:22:58.973Z,13.6
2017-10-11T04:23:59.776Z,13.6
2017-10-11T04:25:00.522Z,13.6
2017-10-11T04:26:01.308Z,13.6
2017-10-11T04:27:02.022Z,13.7
2017-10-11T04:28:03.044Z,13.6
2017-10-11T04:29:03.764Z,13.5
2017-10-11T04:30:04.583Z,13.6
2017-10-11T04:31:05.319Z,13.6
2017-10-11T04:32:06.049Z,13.6
2017-10-11T04:33:07.183Z,13.6
2017-10-11T04:34:07.978Z,13.6
2017-10-11T04:35:08.704Z,13.7
2017-10-11T04:36:09.444Z,13.7
2017-10-11T04:37:10.208Z,13.7
2017-10-11T04:38:11.301Z,13.7
2017-10-11T04:39:12.062Z,13.7
2017-10-11T04:40:12.869Z,13.8
2017-10-11T04:41:13.658Z,13.7
2017-10-11T04:42:14.402Z,13.7
2017-10-11T04:43:15.433Z,13.7
2017-10-11T04:44:16.172Z,13.7
2017-10-11T04:45:16.910Z,13.8
2017-10-11T04:46:17.688Z,13.8
2017-10-11T04:47:18.424Z,13.7
2017-10-11T04:48:19.253Z,13.8
2017-10-11T04:49:19.986Z,13.8
2017-10-11T04:50:20.708Z,13.8
2017-10-11T04:51:21.438Z,13.7
2017-10-11T04:52:22.176Z,13.8
2017-10-11T04:53:23.206Z,13.7
2017-10-11T04:54:23.932Z,13.8
2017-10-11T04:55:24.650Z,13.8
2017-10-11T04:56:25.379Z,13.7
2017-10-11T04:57:26.119Z,13.8
2017-10-11T04:58:27.288Z,13.7
2017-10-11T04:59:28.008Z,13.8
2017-10-11T05:00:28.741Z,13.7
2017-10-11T05:01:29.474Z,13.6
2017-10-11T05:02:30.278Z,13.6
2017-10-11T05:03:31.403Z,13.6
2017-10-11T05:04:32.128Z,13.6
2017-10-11T05:05:32.863Z,13.6
2017-10-11T05:06:33.607Z,13.6
2017-10-11T05:07:34.348Z,13.6
2017-10-11T05:08:35.386Z,13.6
2017-10-11T05:09:36.163Z,13.5
2017-10-11T05:10:36.898Z,13.6
2017-10-11T05:11:37.692Z,13.6
2017-10-11T05:12:38.419Z,13.6
2017-10-11T05:13:39.548Z,13.5
2017-10-11T05:14:40.280Z,13.5
2017-10-11T05:15:41.019Z,13.6
2017-10-11T05:16:41.787Z,13.6
2017-10-11T05:17:42.574Z,13.5
2017-10-11T05:18:43.731Z,13.6
2017-10-11T05:19:44.473Z,13.5
2017-10-11T05:20:45.203Z,13.5
2017-10-11T05:21:45.929Z,13.5
2017-10-11T05:22:46.755Z,13.5
2017-10-11T05:23:47.863Z,13.5
2017-10-11T05:24:48.604Z,13.5
2017-10-11T05:25:49.338Z,13.4
2017-10-11T05:26:50.115Z,13.5
2017-10-11T05:27:50.848Z,13.5
2017-10-11T05:28:52.107Z,13.5
2017-10-11T05:29:52.852Z,13.5
2017-10-11T05:30:53.590Z,13.5
2017-10-11T05:31:54.329Z,13.5
2017-10-11T05:32:55.099Z,13.4
2017-10-11T05:33:55.890Z,13.5
2017-10-11T05:34:56.624Z,13.5
2017-10-11T05:35:57.361Z,13.5
2017-10-11T05:36:58.093Z,13.5
2017-10-11T05:37:58.824Z,13.5
2017-10-11T05:38:59.853Z,13.6
2017-10-11T05:40:00.603Z,13.5
2017-10-11T05:41:01.342Z,13.5
2017-10-11T05:42:02.064Z,13.4
2017-10-11T05:43:02.806Z,13.4
2017-10-11T05:44:03.601Z,13.5
2017-10-11T05:45:04.392Z,13.5
2017-10-11T05:46:05.109Z,13.5
2017-10-11T05:47:05.841Z,13.5
2017-10-11T05:48:06.592Z,13.5
2017-10-11T05:49:07.382Z,13.5
2017-10-11T05:50:08.222Z,13.5
2017-10-11T05:51:08.959Z,13.6
2017-10-11T05:52:09.695Z,13.5
2017-10-11T05:53:10.536Z,13.5
2017-10-11T05:54:11.310Z,13.5
2017-10-11T05:55:12.390Z,13.5
2017-10-11T05:56:13.211Z,13.6
2017-10-11T05:57:13.984Z,13.5
2017-10-11T05:58:14.725Z,13.5
2017-10-11T05:59:15.542Z,13.6
2017-10-11T06:00:16.533Z,13.5
2017-10-11T06:01:17.275Z,13.5
2017-10-11T06:02:17.990Z,13.6
2017-10-11T06:03:18.799Z,13.6
2017-10-11T06:04:19.535Z,13.7
2017-10-11T06:05:20.299Z,13.7
2017-10-11T06:06:21.035Z,13.7
2017-10-11T06:07:21.773Z,13.7
2017-10-11T06:08:22.804Z,13.7
2017-10-11T06:09:23.538Z,13.6
2017-10-11T06:10:24.359Z,13.6
2017-10-11T06:11:25.159Z,13.7
2017-10-11T06:12:25.963Z,13.7
2017-10-11T06:13:28.659Z,13.7
2017-10-11T06:14:29.688Z,13.6
2017-10-11T06:15:30.382Z,13.7
2017-10-11T06:16:31.120Z,13.7
2017-10-11T06:17:31.869Z,13.6
2017-10-11T06:18:32.960Z,13.7
2017-10-11T06:19:33.690Z,13.6
2017-10-11T06:20:34.450Z,13.7
2017-10-11T06:21:35.195Z,13.7
2017-10-11T06:22:35.924Z,13.8
2017-10-11T06:23:36.736Z,13.8
2017-10-11T06:24:37.563Z,13.7
2017-10-11T06:25:38.300Z,13.8
2017-10-11T06:26:39.083Z,13.8
2017-10-11T06:27:39.913Z,13.8
2017-10-11T06:28:40.680Z,13.8
2017-10-11T06:29:41.415Z,13.8
2017-10-11T06:30:42.169Z,13.8
2017-10-11T06:31:43.291Z,13.8
2017-10-11T06:32:44.048Z,13.8
2017-10-11T06:33:44.779Z,13.9
2017-10-11T06:34:45.504Z,13.9
2017-10-11T06:35:46.245Z,14.0
2017-10-11T06:36:47.331Z,13.8
2017-10-11T06:37:48.064Z,13.9
2017-10-11T06:38:48.794Z,13.9
2017-10-11T06:39:49.543Z,13.9
2017-10-11T06:40:50.288Z,14.0
2017-10-11T06:41:51.474Z,13.9
2017-10-11T06:42:52.216Z,13.9
2017-10-11T06:43:53.008Z,13.9
2017-10-11T06:44:53.739Z,13.9
2017-10-11T06:45:54.470Z,13.9
2017-10-11T06:46:55.305Z,14.0
2017-10-11T06:47:56.122Z,13.9
2017-10-11T06:48:56.861Z,13.9
2017-10-11T06:49:57.651Z,13.9
2017-10-11T06:50:58.457Z,13.9
2017-10-11T06:51:59.610Z,13.9
2017-10-11T06:53:00.401Z,14.0
2017-10-11T06:54:01.183Z,14.0
2017-10-11T06:55:01.909Z,13.9
2017-10-11T06:56:02.647Z,14.0
2017-10-11T06:57:03.693Z,14.0
2017-10-11T06:58:04.429Z,13.9
2017-10-11T06:59:05.169Z,13.9
2017-10-11T07:00:05.958Z,14.0
2017-10-11T07:01:06.699Z,14.0
2017-10-11T07:02:07.874Z,14.1
2017-10-11T07:03:08.620Z,14.0
2017-10-11T07:04:09.403Z,14.0
2017-10-11T07:05:10.160Z,14.2
2017-10-11T07:06:10.942Z,14.1
2017-10-11T07:07:11.667Z,14.2
2017-10-11T07:08:12.398Z,14.2
2017-10-11T07:09:13.478Z,14.3
2017-10-11T07:10:14.209Z,14.3
2017-10-11T07:11:15.012Z,14.3
2017-10-11T07:12:15.731Z,14.3
2017-10-11T07:13:16.497Z,14.3
2017-10-11T07:14:17.698Z,14.3
2017-10-11T07:15:18.436Z,14.3
2017-10-11T07:16:19.176Z,14.3
2017-10-11T07:17:19.982Z,14.4
2017-10-11T07:18:20.787Z,14.5
2017-10-11T07:19:21.635Z,14.4
2017-10-11T07:20:22.431Z,14.4
2017-10-11T07:21:23.167Z,14.4
2017-10-11T07:22:23.914Z,14.5
2017-10-11T07:23:24.698Z,14.4
2017-10-11T07:24:25.861Z,14.4
2017-10-11T07:25:26.632Z,14.4
2017-10-11T07:26:27.383Z,14.4
2017-10-11T07:27:28.171Z,14.4
2017-10-11T07:28:28.898Z,14.5
2017-10-11T07:29:30.052Z,14.6
2017-10-11T07:30:30.859Z,14.6
2017-10-11T07:31:31.668Z,14.5
2017-10-11T07:32:32.406Z,14.6
2017-10-11T07:33:33.138Z,14.5
2017-10-11T07:34:34.227Z,14.6
2017-10-11T07:35:34.961Z,14.5
2017-10-11T07:36:35.700Z,14.5
2017-10-11T07:37:36.493Z,14.6
2017-10-11T07:38:37.249Z,14.6
2017-10-11T07:39:38.096Z,14.6
2017-10-11T07:41:53.107Z,14.5
2017-10-11T07:42:53.841Z,14.5
2017-10-11T07:43:54.661Z,14.5
2017-10-11T07:44:55.759Z,14.5
2017-10-11T07:45:56.582Z,14.6
2017-10-11T07:46:57.404Z,14.5
2017-10-11T07:47:58.145Z,14.5
2017-10-11T07:48:58.990Z,14.5
2017-10-11T07:50:00.112Z,14.5
2017-10-11T07:51:00.917Z,14.5
2017-10-11T07:52:01.647Z,14.5
2017-10-11T07:53:02.393Z,14.5
2017-10-11T07:54:03.171Z,14.5
2017-10-11T07:55:03.999Z,14.5
2017-10-11T07:56:04.755Z,14.5
2017-10-11T07:57:05.526Z,14.4
2017-10-11T07:58:06.275Z,14.5
2017-10-11T07:59:07.113Z,14.5
2017-10-11T08:00:07.940Z,14.5
2017-10-11T08:01:08.670Z,14.6
2017-10-11T08:02:09.484Z,14.6
2017-10-11T08:03:10.285Z,14.5
2017-10-11T08:04:11.110Z,14.5
2017-10-11T08:05:12.240Z,14.6
2017-10-11T08:06:12.986Z,14.6
2017-10-11T08:07:13.772Z,14.7
2017-10-11T08:08:14.518Z,14.7
2017-10-11T08:09:15.268Z,14.5
2017-10-11T08:10:16.654Z,14.6
2017-10-11T08:11:17.455Z,14.6
2017-10-11T08:12:18.301Z,14.6
2017-10-11T08:13:19.100Z,14.6
2017-10-11T08:14:19.905Z,14.6
2017-10-11T08:15:21.682Z,14.6
2017-10-11T08:16:22.403Z,14.7
2017-10-11T08:17:23.140Z,14.6
2017-10-11T08:18:23.953Z,14.6
2017-10-11T08:19:24.690Z,14.7
2017-10-11T08:20:26.168Z,14.6
2017-10-11T08:21:27.105Z,14.8
2017-10-11T08:22:27.844Z,14.8
2017-10-11T08:23:28.580Z,14.7
2017-10-11T08:24:29.330Z,14.7
2017-10-11T08:25:30.486Z,14.8
2017-10-11T08:26:31.218Z,14.8
2017-10-11T08:27:31.961Z,14.8
2017-10-11T08:28:32.765Z,14.8
2017-10-11T08:29:33.550Z,14.8
2017-10-11T08:30:34.745Z,14.9
2017-10-11T08:31:35.485Z,14.9
2017-10-11T08:32:36.216Z,14.9
2017-10-11T08:33:37.012Z,14.9
2017-10-11T08:34:37.816Z,15.0
2017-10-11T08:35:38.600Z,15.0
2017-10-11T08:36:39.349Z,15.0
2017-10-11T08:37:40.163Z,15.0
2017-10-11T08:38:40.986Z,15.0
2017-10-11T08:39:41.801Z,14.9
2017-10-11T08:40:42.904Z,15.0
2017-10-11T08:41:43.660Z,15.0
2017-10-11T08:42:44.425Z,15.1
2017-10-11T08:43:45.162Z,15.1
2017-10-11T08:44:45.951Z,15.3
2017-10-11T08:45:47.043Z,15.2
2017-10-11T08:46:47.770Z,15.2
2017-10-11T08:47:48.514Z,15.2
2017-10-11T08:48:49.298Z,15.2
2017-10-11T08:49:50.032Z,15.2
2017-10-11T08:50:51.250Z,15.2
2017-10-11T08:51:51.985Z,15.2
2017-10-11T08:52:52.730Z,15.2
2017-10-11T08:53:53.536Z,15.2
2017-10-11T08:54:54.278Z,15.2
2017-10-11T08:55:55.304Z,15.2
2017-10-11T08:56:56.049Z,15.1
2017-10-11T08:57:56.799Z,15.2
2017-10-11T08:58:57.525Z,15.2
2017-10-11T08:59:58.279Z,15.3
2017-10-11T09:00:59.318Z,15.2
2017-10-11T09:02:00.055Z,15.3
2017-10-11T09:03:00.785Z,15.4
2017-10-11T09:04:01.515Z,15.4
2017-10-11T09:05:02.258Z,15.4
2017-10-11T09:06:03.337Z,15.5
2017-10-11T09:07:04.066Z,15.5
2017-10-11T09:08:04.874Z,15.6
2017-10-11T09:09:05.613Z,15.6
2017-10-11T09:10:06.397Z,15.5
2017-10-11T09:11:07.233Z,15.5
2017-10-11T09:12:07.975Z,15.5
2017-10-11T09:13:08.784Z,15.5
2017-10-11T09:14:09.538Z,15.5
2017-10-11T09:15:10.326Z,15.5
2017-10-11T09:16:11.148Z,15.5
2017-10-11T09:17:11.888Z,15.5
2017-10-11T09:18:12.615Z,15.5
2017-10-11T09:19:13.345Z,15.5
2017-10-11T09:20:14.088Z,15.5
2017-10-11T09:21:14.829Z,15.4
2017-10-11T09:22:15.638Z,15.3
2017-10-11T09:23:16.734Z,15.5
2017-10-11T09:24:17.529Z,15.5
2017-10-11T09:25:18.338Z,15.5
2017-10-11T09:26:19.075Z,15.6
2017-10-11T09:27:19.806Z,15.6
2017-10-11T09:28:20.849Z,15.6
2017-10-11T09:29:21.663Z,15.8
2017-10-11T09:30:22.398Z,15.8
2017-10-11T09:31:23.130Z,15.9
2017-10-11T09:32:23.929Z,16.0
2017-10-11T09:33:24.968Z,15.9
2017-10-11T09:34:25.708Z,16.1
2017-10-11T09:35:26.521Z,16.0
2017-10-11T09:36:27.297Z,16.0
2017-10-11T09:37:28.049Z,16.0
2017-10-11T09:38:29.143Z,16.0
2017-10-11T09:39:29.919Z,16.0
2017-10-11T09:40:30.666Z,16.0
2017-10-11T09:41:31.406Z,16.1
2017-10-11T09:42:32.200Z,16.2
2017-10-11T09:43:33.237Z,16.2
2017-10-11T09:44:34.043Z,16.3
2017-10-11T09:45:34.782Z,16.1
2017-10-11T09:46:35.591Z,16.0
2017-10-11T09:47:36.322Z,16.1
2017-10-11T09:48:37.171Z,16.2
2017-10-11T09:49:37.900Z,16.2
2017-10-11T09:50:38.645Z,16.2
2017-10-11T09:51:39.388Z,16.2
2017-10-11T09:52:40.133Z,16.1
2017-10-11T09:53:41.226Z,16.3
2017-10-11T09:54:42.055Z,16.1
2017-10-11T09:55:42.842Z,16.0
2017-10-11T09:56:43.647Z,16.1
2017-10-11T09:57:44.464Z,16.2
2017-10-11T09:58:45.303Z,16.0
2017-10-11T09:59:46.050Z,16.0
2017-10-11T10:00:46.804Z,16.3
2017-10-11T10:01:47.541Z,16.2
2017-10-11T10:02:48.279Z,16.2
2017-10-11T10:03:49.418Z,16.3
2017-10-11T10:04:50.230Z,16.3
2017-10-11T10:05:51.026Z,16.2
2017-10-11T10:06:51.770Z,16.4
2017-10-11T10:07:52.514Z,16.4
2017-10-11T10:08:53.651Z,16.4
2017-10-11T10:09:54.457Z,16.4
2017-10-11T10:10:55.282Z,16.2
2017-10-11T10:11:56.027Z,16.2
2017-10-11T10:12:56.800Z,16.1
2017-10-11T10:13:57.886Z,16.0
2017-10-11T10:14:58.621Z,16.1
2017-10-11T10:15:59.416Z,16.2
2017-10-11T10:17:00.230Z,16.2
2017-10-11T10:18:00.967Z,16.2
2017-10-11T10:19:02.011Z,16.3
2017-10-11T10:20:02.761Z,16.3
2017-10-11T10:21:03.504Z,16.4
2017-10-11T10:22:04.239Z,16.3
2017-10-11T10:23:05.027Z,16.3
2017-10-11T10:24:06.112Z,16.3
2017-10-11T10:25:06.852Z,16.2
2017-10-11T10:26:07.577Z,16.3
2017-10-11T10:27:08.320Z,16.4
2017-10-11T10:28:09.057Z,16.3
2017-10-11T10:29:10.113Z,16.4
2017-10-11T10:30:10.878Z,16.7
2017-10-11T10:31:11.613Z,16.7
2017-10-11T10:32:12.353Z,16.7
2017-10-11T10:33:13.175Z,16.5
2017-10-11T10:34:14.168Z,16.4
2017-10-11T10:35:14.913Z,16.5
2017-10-11T10:36:15.734Z,16.4
2017-10-11T10:37:16.463Z,16.3
2017-10-11T10:38:17.238Z,16.3
2017-10-11T10:39:18.275Z,16.3
2017-10-11T10:40:19.011Z,16.3
2017-10-11T10:41:19.814Z,16.2
2017-10-11T10:42:20.607Z,16.2
2017-10-11T10:43:21.388Z,16.2
2017-10-11T10:44:22.478Z,16.2
2017-10-11T10:45:23.233Z,16.3
2017-10-11T10:46:23.961Z,16.3
2017-10-11T10:47:24.756Z,16.3
2017-10-11T10:48:25.563Z,16.2
2017-10-11T10:49:26.342Z,16.1
2017-10-11T10:50:27.084Z,16.1
2017-10-11T10:51:27.880Z,16.2
2017-10-11T10:52:28.612Z,16.4
2017-10-11T10:53:29.350Z,16.3
2017-10-11T10:54:30.715Z,16.4
2017-10-11T10:55:31.522Z,16.3
2017-10-11T10:56:32.411Z,16.4
2017-10-11T10:57:33.226Z,16.3
2017-10-11T10:58:34.027Z,16.3
2017-10-11T10:59:35.193Z,16.2
2017-10-11T11:00:35.928Z,16.2
2017-10-11T11:01:36.688Z,16.1
2017-10-11T11:02:37.453Z,16.0
2017-10-11T11:03:38.184Z,15.9
2017-10-11T11:04:39.228Z,16.0
2017-10-11T11:05:40.019Z,16.0
2017-10-11T11:06:40.761Z,15.9
2017-10-11T11:07:41.555Z,16.0
2017-10-11T11:08:42.288Z,15.9
2017-10-11T11:09:43.327Z,15.9
2017-10-11T11:10:44.073Z,15.9
2017-10-11T11:11:44.822Z,15.7
2017-10-11T11:12:45.551Z,15.9
2017-10-11T11:13:46.298Z,15.9
2017-10-11T11:14:47.513Z,15.8
2017-10-11T11:15:48.283Z,15.8
2017-10-11T11:16:49.011Z,15.9
2017-10-11T11:17:49.825Z,15.8
2017-10-11T11:18:50.553Z,15.9
2017-10-11T11:19:51.399Z,15.9
2017-10-11T11:20:52.192Z,16.0
2017-10-11T11:21:52.983Z,16.0
2017-10-11T11:22:53.702Z,16.0
2017-10-11T11:23:54.464Z,16.0
2017-10-11T11:24:55.649Z,16.0
2017-10-11T11:25:56.414Z,16.0
2017-10-11T11:26:57.230Z,15.9
2017-10-11T11:27:58.038Z,15.9
2017-10-11T11:28:58.809Z,15.9
2017-10-11T11:30:00.215Z,16.0
2017-10-11T11:31:01.113Z,16.0
2017-10-11T11:32:02.723Z,16.0
2017-10-11T11:33:03.711Z,16.0
2017-10-11T11:34:04.514Z,15.8
2017-10-11T11:35:06.509Z,15.7
2017-10-11T11:36:07.619Z,15.8
2017-10-11T11:37:08.364Z,15.8
2017-10-11T11:38:10.188Z,15.8
2017-10-11T11:39:11.200Z,15.8
2017-10-11T11:40:12.303Z,15.8
2017-10-11T11:41:13.108Z,15.7
2017-10-11T11:42:13.844Z,15.6
2017-10-11T11:43:14.618Z,15.7
2017-10-11T11:44:15.369Z,15.8
2017-10-11T11:45:16.212Z,15.7
2017-10-11T11:46:17.034Z,15.7
2017-10-11T11:47:17.803Z,15.6
2017-10-11T11:48:18.530Z,15.6
2017-10-11T11:49:19.273Z,15.7
2017-10-11T11:50:20.104Z,15.6
2017-10-11T11:51:20.834Z,15.7
2017-10-11T11:52:21.581Z,15.7
2017-10-11T11:53:22.371Z,15.6
2017-10-11T11:54:23.125Z,15.7
2017-10-11T11:55:24.342Z,15.7
2017-10-11T11:56:25.461Z,15.8
2017-10-11T11:57:26.398Z,15.7
2017-10-11T11:58:27.106Z,15.8
2017-10-11T11:59:27.928Z,15.8
2017-10-11T12:00:28.731Z,15.8
2017-10-11T12:01:30.659Z,15.8
2017-10-11T12:02:31.600Z,15.8
2017-10-11T12:03:32.604Z,15.8
2017-10-11T12:04:33.375Z,15.8
2017-10-11T12:05:34.135Z,15.7
2017-10-11T12:06:34.873Z,15.9
2017-10-11T12:07:35.685Z,15.9
2017-10-11T12:08:36.769Z,15.8
2017-10-11T12:09:37.512Z,15.8
2017-10-11T12:10:38.238Z,15.8
2017-10-11T12:11:38.984Z,15.8
2017-10-11T12:12:39.766Z,15.8
2017-10-11T12:13:40.867Z,15.9
2017-10-11T12:14:41.609Z,15.9
2017-10-11T12:15:42.353Z,15.8
2017-10-11T12:16:43.094Z,15.9
2017-10-11T12:17:43.897Z,15.9
2017-10-11T12:18:44.623Z,15.9
2017-10-11T12:19:45.367Z,15.9
2017-10-11T12:20:46.180Z,16.0
2017-10-11T12:21:47.308Z,16.0
2017-10-11T12:22:48.106Z,16.0
2017-10-11T12:23:48.837Z,15.9
2017-10-11T12:24:49.644Z,15.8
2017-10-11T12:25:50.380Z,15.9
2017-10-11T12:26:51.460Z,15.8
2017-10-11T12:27:52.191Z,15.7
2017-10-11T12:28:52.919Z,15.7
2017-10-11T12:29:53.654Z,15.8
2017-10-11T12:30:54.385Z,15.7
2017-10-11T12:31:55.567Z,15.8
2017-10-11T12:32:56.312Z,15.8
2017-10-11T12:33:57.121Z,15.7
2017-10-11T12:34:57.943Z,15.7
2017-10-11T12:35:58.759Z,15.7
2017-10-11T12:36:59.640Z,15.7
2017-10-11T12:38:00.449Z,15.7
2017-10-11T12:39:01.195Z,15.7
2017-10-11T12:40:01.974Z,15.8
2017-10-11T12:41:02.715Z,15.8
2017-10-11T12:42:03.841Z,15.8
2017-10-11T12:43:04.726Z,15.8
2017-10-11T12:44:05.482Z,15.7
2017-10-11T12:45:06.221Z,15.7
2017-10-11T12:46:07.033Z,15.7
2017-10-11T12:47:08.265Z,15.6
2017-10-11T12:48:08.994Z,15.6
2017-10-11T12:49:09.730Z,15.6
2017-10-11T12:50:10.475Z,15.5
2017-10-11T12:51:11.211Z,15.6
2017-10-11T12:52:12.036Z,15.6
2017-10-11T12:53:12.857Z,15.5
2017-10-11T12:54:13.658Z,15.5
2017-10-11T12:55:14.439Z,15.5
2017-10-11T12:56:15.258Z,15.4
2017-10-11T12:57:16.144Z,15.4
2017-10-11T12:58:16.949Z,15.4
2017-10-11T12:59:17.689Z,15.4
2017-10-11T13:00:18.426Z,15.4
2017-10-11T13:01:19.227Z,15.4
2017-10-11T13:02:20.138Z,15.3
2017-10-11T13:03:20.953Z,15.4
2017-10-11T13:04:21.768Z,15.4
2017-10-11T13:05:22.501Z,15.3
2017-10-11T13:06:23.318Z,15.4
2017-10-11T13:07:24.354Z,15.3
2017-10-11T13:08:25.091Z,15.4
2017-10-11T13:09:25.887Z,15.4
2017-10-11T13:10:26.684Z,15.5
2017-10-11T13:11:27.429Z,15.5
2017-10-11T13:12:28.511Z,15.5
2017-10-11T13:13:29.306Z,15.6
2017-10-11T13:14:30.038Z,15.5
2017-10-11T13:15:30.821Z,15.5
2017-10-11T13:16:31.642Z,15.6
2017-10-11T13:17:32.483Z,15.5
2017-10-11T13:18:33.229Z,15.5
2017-10-11T13:19:34.045Z,15.5
2017-10-11T13:20:34.827Z,15.4
2017-10-11T13:21:35.571Z,15.4
2017-10-11T13:22:36.674Z,15.3
2017-10-11T13:23:37.422Z,15.4
2017-10-11T13:24:38.206Z,15.3
2017-10-11T13:25:39.018Z,15.2
2017-10-11T13:26:39.751Z,15.3
2017-10-11T13:27:40.848Z,15.4
2017-10-11T13:28:41.665Z,15.3
2017-10-11T13:29:43.441Z,15.3
2017-10-11T13:30:44.469Z,15.3